Terminal Aerodrome Forecast
Issued by NWS

Home | Current Version | Previous Version | Text Only | Print | Product List | Glossary On
Versions: 1 2 3 4 5 6 7 8 9 10 11 12 13 14 15 16 17
000
FTUS46 KMTR 241720
TAFSNS
TAF
KSNS 241720Z 2418/2518 29005KT P6SM SCT150
     FM242000 29012KT P6SM BKN150
     FM250200 29010KT P6SM BKN007
     FM250400 28006KT 6SM BR OVC005
     FM250800 VRB03KT 6SM BR OVC004=

USA.gov is the U.S. government's official web portal to all federal, state and local government web resources and services.